Time;durP1;ratioP1;P1;durP2;ratioP2;P2;SDS_P1;SDS_P2;PMS_P1;PMS_P2;Temp;Humidity;BMP_temperature;BMP_pressure;BME280_temperature;BME280_humidity;BME280_pressure;Samples;Min_cycle;Max_cycle;Signal;HPM_P1;HPM_P2
2023/06/25 00:01:56;;;;;;;11.90;4.57;;;;;;;;;;5060906;28;20135;-69
2023/06/25 00:04:22;;;;;;;9.10;4.40;;;;;;;;;;5054332;28;20111;-68
2023/06/25 00:06:48;;;;;;;12.23;4.95;;;;;;;;;;5053226;28;20033;-68
2023/06/25 00:09:13;;;;;;;13.38;5.35;;;;;;;;;;5052360;28;20421;-69
2023/06/25 00:11:39;;;;;;;18.27;5.13;;;;;;;;;;5053776;28;20036;-69
2023/06/25 00:14:05;;;;;;;11.50;4.18;;;;;;;;;;5060922;28;20028;-69
2023/06/25 00:16:33;;;;;;;22.67;5.35;;;;;;;;;;5063209;28;20045;-68
2023/06/25 00:19:00;;;;;;;17.75;5.53;;;;;;;;;;5059963;28;20032;-69
2023/06/25 00:21:26;;;;;;;17.17;4.95;;;;;;;;;;5055461;28;20032;-69
2023/06/25 00:23:52;;;;;;;13.98;4.63;;;;;;;;;;5062186;28;20033;-69
2023/06/25 00:26:18;;;;;;;13.65;5.07;;;;;;;;;;5066144;28;20039;-69
2023/06/25 00:28:44;;;;;;;11.38;5.07;;;;;;;;;;5053604;28;20028;-69
2023/06/25 00:31:14;;;;;;;12.15;4.55;;;;;;;;;;5052541;28;20494;-69
2023/06/25 00:33:43;;;;;;;10.23;5.00;;;;;;;;;;5052579;28;20037;-70
2023/06/25 00:36:09;;;;;;;13.43;4.15;;;;;;;;;;5053796;28;20024;-69
2023/06/25 00:38:37;;;;;;;14.75;5.03;;;;;;;;;;5052320;28;20115;-69
2023/06/25 00:41:05;;;;;;;14.57;5.45;;;;;;;;;;5068842;28;20033;-69
2023/06/25 00:43:31;;;;;;;18.13;5.40;;;;;;;;;;5052413;28;20094;-70
2023/06/25 00:45:57;;;;;;;11.77;5.00;;;;;;;;;;5053569;28;20020;-68
2023/06/25 00:48:23;;;;;;;14.63;6.22;;;;;;;;;;5052204;28;20037;-69
2023/06/25 00:50:50;;;;;;;16.20;5.50;;;;;;;;;;5052150;28;20017;-69
2023/06/25 00:53:16;;;;;;;14.98;5.55;;;;;;;;;;5052133;28;20029;-68
2023/06/25 00:55:42;;;;;;;12.35;6.07;;;;;;;;;;5052101;28;20115;-69
2023/06/25 00:58:08;;;;;;;12.73;5.50;;;;;;;;;;5052100;28;20125;-69
2023/06/25 01:00:34;;;;;;;12.20;4.82;;;;;;;;;;5053129;28;20329;-69
2023/06/25 01:03:16;;;;;;;12.27;5.32;;;;;;;;;;5052086;28;20037;-69
2023/06/25 01:06:03;;;;;;;12.18;5.32;;;;;;;;;;5052012;28;20064;-69
2023/06/25 01:08:30;;;;;;;17.05;6.35;;;;;;;;;;5052029;28;20041;-69
2023/06/25 01:10:57;;;;;;;16.48;5.65;;;;;;;;;;5035151;28;20100;-69
2023/06/25 01:13:23;;;;;;;14.32;5.82;;;;;;;;;;5051945;28;20406;-69
2023/06/25 01:15:49;;;;;;;23.40;6.43;;;;;;;;;;5052967;28;20117;-70
2023/06/25 01:18:14;;;;;;;15.48;5.80;;;;;;;;;;5052885;28;20045;-69
2023/06/25 01:20:41;;;;;;;11.82;5.63;;;;;;;;;;5052948;28;20021;-69
2023/06/25 01:23:10;;;;;;;22.80;6.78;;;;;;;;;;5053069;28;20041;-68
2023/06/25 01:25:38;;;;;;;16.42;6.05;;;;;;;;;;5050691;28;20474;-69
2023/06/25 01:28:05;;;;;;;21.05;6.78;;;;;;;;;;5052736;28;20024;-68
2023/06/25 01:30:31;;;;;;;18.10;6.22;;;;;;;;;;5052436;28;20040;-69
2023/06/25 01:33:00;;;;;;;20.63;6.13;;;;;;;;;;5051487;28;20335;-69
2023/06/25 01:35:26;;;;;;;20.00;6.75;;;;;;;;;;5051455;28;20094;-69
2023/06/25 01:37:52;;;;;;;13.73;6.43;;;;;;;;;;5068104;28;20036;-68
2023/06/25 01:40:17;;;;;;;14.43;6.90;;;;;;;;;;5052087;28;20032;-69
2023/06/25 01:42:43;;;;;;;14.65;7.22;;;;;;;;;;5052582;28;20028;-69
2023/06/25 01:45:11;;;;;;;25.63;8.18;;;;;;;;;;5051278;28;20406;-68
2023/06/25 01:47:37;;;;;;;16.38;6.88;;;;;;;;;;5051019;28;20526;-69
2023/06/25 01:50:04;;;;;;;23.42;7.13;;;;;;;;;;5050855;28;20122;-70
2023/06/25 01:52:30;;;;;;;18.60;7.10;;;;;;;;;;5060944;28;20044;-70
2023/06/25 01:54:56;;;;;;;14.80;5.78;;;;;;;;;;5071192;28;20028;-69
2023/06/25 01:57:22;;;;;;;22.10;7.53;;;;;;;;;;5071095;28;20536;-69
2023/06/25 01:59:47;;;;;;;20.30;6.10;;;;;;;;;;5050495;28;20029;-70
2023/06/25 02:02:13;;;;;;;16.30;5.75;;;;;;;;;;5050575;28;20051;-70
2023/06/25 02:04:39;;;;;;;13.55;5.28;;;;;;;;;;5051198;28;20395;-70
2023/06/25 02:07:05;;;;;;;14.65;5.07;;;;;;;;;;5050907;28;20099;-69
2023/06/25 02:09:31;;;;;;;14.70;5.43;;;;;;;;;;5051687;28;20064;-69
2023/06/25 02:11:56;;;;;;;13.07;5.20;;;;;;;;;;5050864;28;20021;-69
2023/06/25 02:14:22;;;;;;;14.95;5.05;;;;;;;;;;5051920;28;20090;-69
2023/06/25 02:16:48;;;;;;;18.15;5.93;;;;;;;;;;5063067;28;20025;-69
2023/06/25 02:19:14;;;;;;;13.07;4.60;;;;;;;;;;5070438;28;20036;-70
2023/06/25 02:21:39;;;;;;;14.80;5.05;;;;;;;;;;5070347;28;20121;-69
2023/06/25 02:24:05;;;;;;;14.18;4.57;;;;;;;;;;5072032;28;20048;-69
2023/06/25 02:26:31;;;;;;;11.30;4.35;;;;;;;;;;5070361;28;20024;-69
2023/06/25 02:28:57;;;;;;;14.77;4.50;;;;;;;;;;5070234;28;20043;-70
2023/06/25 02:31:23;;;;;;;14.77;4.70;;;;;;;;;;5064463;28;20024;-69
2023/06/25 02:33:50;;;;;;;12.45;4.80;;;;;;;;;;5052031;28;20465;-69
2023/06/25 02:36:15;;;;;;;18.33;4.90;;;;;;;;;;5055577;28;20020;-70
2023/06/25 02:38:41;;;;;;;13.82;5.13;;;;;;;;;;5071451;28;20421;-70
2023/06/25 02:41:07;;;;;;;13.45;4.65;;;;;;;;;;5071184;28;20086;-69
2023/06/25 02:43:33;;;;;;;13.90;4.85;;;;;;;;;;5070429;28;20044;-69
2023/06/25 02:45:59;;;;;;;14.43;4.68;;;;;;;;;;5069464;28;20026;-69
2023/06/25 02:48:24;;;;;;;15.63;4.93;;;;;;;;;;5051574;28;20037;-69
2023/06/25 02:50:50;;;;;;;11.85;5.15;;;;;;;;;;5049996;28;20017;-69
2023/06/25 02:53:16;;;;;;;12.93;4.30;;;;;;;;;;5050368;28;20029;-70
2023/06/25 02:55:41;;;;;;;11.10;4.57;;;;;;;;;;5051546;28;20032;-69
2023/06/25 02:58:07;;;;;;;14.10;5.30;;;;;;;;;;5051440;28;20410;-69
2023/06/25 03:00:35;;;;;;;13.93;4.85;;;;;;;;;;5066578;28;20028;-69
2023/06/25 03:03:00;;;;;;;13.93;4.82;;;;;;;;;;5050293;28;20410;-69
2023/06/25 03:05:26;;;;;;;14.63;4.72;;;;;;;;;;5050240;28;20031;-70
2023/06/25 03:07:54;;;;;;;15.05;4.53;;;;;;;;;;5066952;28;20036;-69
2023/06/25 03:10:25;;;;;;;11.30;4.90;;;;;;;;;;5070695;28;20406;-69
2023/06/25 03:12:51;;;;;;;12.35;5.18;;;;;;;;;;5069798;28;20037;-69
2023/06/25 03:15:17;;;;;;;12.77;4.63;;;;;;;;;;5068845;28;20371;-69
2023/06/25 03:17:44;;;;;;;9.75;4.43;;;;;;;;;;5070756;28;20044;-69
2023/06/25 03:20:10;;;;;;;12.15;4.47;;;;;;;;;;5070004;28;20070;-69
2023/06/25 03:22:36;;;;;;;12.60;4.50;;;;;;;;;;5071113;28;20060;-69
2023/06/25 03:25:04;;;;;;;12.18;4.25;;;;;;;;;;5070363;28;20024;-70
2023/06/25 03:27:33;;;;;;;11.20;5.15;;;;;;;;;;5070168;28;20033;-70
2023/06/25 03:29:59;;;;;;;14.80;5.35;;;;;;;;;;5070120;28;20103;-69
2023/06/25 03:32:26;;;;;;;14.68;5.25;;;;;;;;;;5070836;28;20043;-73
2023/06/25 03:34:52;;;;;;;16.58;5.22;;;;;;;;;;5037137;28;20037;-69
2023/06/25 03:37:18;;;;;;;13.48;4.57;;;;;;;;;;5070168;28;20035;-69
2023/06/25 03:39:45;;;;;;;11.73;4.88;;;;;;;;;;5070003;28;20107;-69
2023/06/25 03:42:11;;;;;;;14.40;4.80;;;;;;;;;;5069943;28;20033;-69
2023/06/25 03:44:39;;;;;;;13.23;4.82;;;;;;;;;;5070035;28;20102;-69
2023/06/25 03:47:05;;;;;;;14.85;5.30;;;;;;;;;;5053511;28;20085;-69
2023/06/25 03:49:31;;;;;;;18.77;5.90;;;;;;;;;;5073327;28;20024;-68
2023/06/25 03:51:56;;;;;;;17.05;4.85;;;;;;;;;;5090713;28;20405;-69
2023/06/25 03:54:22;;;;;;;14.20;5.30;;;;;;;;;;5073619;28;20031;-69
2023/06/25 03:56:48;;;;;;;15.52;5.20;;;;;;;;;;5073470;28;20035;-69
2023/06/25 03:59:14;;;;;;;13.43;5.00;;;;;;;;;;5073419;28;20024;-69
2023/06/25 04:01:39;;;;;;;16.30;6.13;;;;;;;;;;5081380;28;20024;-70
2023/06/25 04:04:07;;;;;;;17.52;6.00;;;;;;;;;;5104121;28;20101;-69
2023/06/25 04:06:32;;;;;;;14.02;5.50;;;;;;;;;;5090966;28;20428;-69
2023/06/25 04:08:58;;;;;;;15.38;5.40;;;;;;;;;;5077229;28;20028;-69
2023/06/25 04:11:24;;;;;;;15.25;5.40;;;;;;;;;;5076905;28;20039;-69
2023/06/25 04:13:50;;;;;;;18.58;5.40;;;;;;;;;;5092942;28;20032;-69
2023/06/25 04:16:16;;;;;;;11.80;5.75;;;;;;;;;;5093491;28;20082;-69
2023/06/25 04:18:42;;;;;;;15.07;4.82;;;;;;;;;;5075123;28;20032;-69
2023/06/25 04:21:08;;;;;;;14.85;5.72;;;;;;;;;;5098342;28;20020;-69
2023/06/25 04:23:34;;;;;;;12.55;5.13;;;;;;;;;;5091554;28;20417;-69
2023/06/25 04:26:00;;;;;;;17.40;5.45;;;;;;;;;;5093291;28;20429;-69
2023/06/25 04:28:26;;;;;;;13.82;5.30;;;;;;;;;;5093450;28;20024;-69
2023/06/25 04:30:52;;;;;;;14.50;5.50;;;;;;;;;;5093463;28;20028;-69
2023/06/25 04:33:19;;;;;;;14.00;5.28;;;;;;;;;;5076715;28;20035;-69
2023/06/25 04:35:45;;;;;;;15.35;4.43;;;;;;;;;;5095155;28;20043;-69
2023/06/25 04:38:11;;;;;;;14.38;5.47;;;;;;;;;;5094064;28;20024;-69
2023/06/25 04:40:37;;;;;;;11.25;4.57;;;;;;;;;;5094413;28;20478;-69
2023/06/25 04:43:04;;;;;;;12.95;5.53;;;;;;;;;;5093155;28;20028;-69
2023/06/25 04:45:32;;;;;;;12.68;4.63;;;;;;;;;;5093020;28;20040;-69
2023/06/25 04:47:57;;;;;;;13.25;5.07;;;;;;;;;;5092110;28;20042;-69
2023/06/25 04:50:23;;;;;;;16.25;4.32;;;;;;;;;;5094132;28;20032;-68
2023/06/25 04:52:49;;;;;;;10.70;4.25;;;;;;;;;;5109588;28;20046;-69
2023/06/25 04:55:15;;;;;;;16.35;4.53;;;;;;;;;;5094166;28;20073;-69
2023/06/25 04:57:42;;;;;;;15.07;4.55;;;;;;;;;;5094068;28;20559;-70
2023/06/25 05:00:09;;;;;;;10.45;4.20;;;;;;;;;;5093711;28;20032;-69
2023/06/25 05:02:36;;;;;;;15.02;4.10;;;;;;;;;;5093921;28;20028;-69
2023/06/25 05:05:02;;;;;;;13.55;4.38;;;;;;;;;;5093857;28;20108;-70
2023/06/25 05:07:27;;;;;;;18.85;4.82;;;;;;;;;;5093669;28;20035;-69
2023/06/25 05:09:53;;;;;;;11.00;4.53;;;;;;;;;;5093606;28;20460;-68
2023/06/25 05:12:19;;;;;;;8.40;3.90;;;;;;;;;;5093808;28;20051;-69
2023/06/25 05:14:45;;;;;;;12.82;4.05;;;;;;;;;;5090678;28;20100;-70
2023/06/25 05:17:11;;;;;;;19.10;5.00;;;;;;;;;;5086764;28;20519;-70
2023/06/25 05:19:37;;;;;;;12.68;4.68;;;;;;;;;;5093599;28;20024;-71
2023/06/25 05:22:04;;;;;;;14.02;4.60;;;;;;;;;;5093443;28;20051;-71
2023/06/25 05:24:31;;;;;;;12.13;4.57;;;;;;;;;;5092493;28;20119;-69
2023/06/25 05:26:56;;;;;;;13.98;4.47;;;;;;;;;;5093531;28;20020;-69
2023/06/25 05:29:22;;;;;;;16.25;4.88;;;;;;;;;;5093492;28;20115;-71
2023/06/25 05:31:48;;;;;;;13.02;4.68;;;;;;;;;;5092429;28;20024;-70
2023/06/25 05:34:14;;;;;;;17.45;4.43;;;;;;;;;;5093491;28;20032;-70
2023/06/25 05:36:39;;;;;;;11.95;4.90;;;;;;;;;;5095432;28;20031;-72
2023/06/25 05:39:05;;;;;;;13.15;4.65;;;;;;;;;;5095043;28;20058;-70
2023/06/25 05:41:31;;;;;;;15.60;4.57;;;;;;;;;;5095564;28;20030;-72
2023/06/25 05:43:57;;;;;;;15.25;4.90;;;;;;;;;;5095735;28;20481;-72
2023/06/25 05:46:22;;;;;;;14.88;4.95;;;;;;;;;;5095778;28;20035;-72
2023/06/25 05:48:48;;;;;;;13.77;4.45;;;;;;;;;;5094743;28;20093;-72
2023/06/25 05:51:14;;;;;;;13.82;4.43;;;;;;;;;;5096636;28;20022;-73
2023/06/25 05:53:42;;;;;;;11.18;4.55;;;;;;;;;;5096319;28;20032;-71
2023/06/25 05:56:08;;;;;;;11.77;4.50;;;;;;;;;;5095215;28;20128;-73
2023/06/25 05:58:35;;;;;;;13.27;4.63;;;;;;;;;;5095117;28;20136;-71
2023/06/25 06:01:01;;;;;;;13.75;5.30;;;;;;;;;;5093757;28;20032;-74
2023/06/25 06:03:26;;;;;;;11.85;4.85;;;;;;;;;;5094480;28;20044;-71
2023/06/25 06:05:53;;;;;;;13.23;4.97;;;;;;;;;;5094536;28;20028;-72
2023/06/25 06:08:21;;;;;;;9.10;4.45;;;;;;;;;;5093705;28;20058;-70
2023/06/25 06:10:47;;;;;;;13.73;4.13;;;;;;;;;;5093642;28;20294;-72
2023/06/25 06:13:13;;;;;;;11.40;4.72;;;;;;;;;;5093621;28;20042;-71
2023/06/25 06:15:40;;;;;;;14.55;4.40;;;;;;;;;;5093823;28;20106;-72
2023/06/25 06:18:06;;;;;;;10.38;4.30;;;;;;;;;;5095109;28;20048;-72
2023/06/25 06:20:32;;;;;;;11.30;4.50;;;;;;;;;;5093031;28;20428;-71
2023/06/25 06:23:01;;;;;;;11.40;4.20;;;;;;;;;;5093162;28;20044;-72
2023/06/25 06:25:27;;;;;;;16.40;4.55;;;;;;;;;;5093342;28;20028;-70
2023/06/25 06:27:54;;;;;;;10.20;4.88;;;;;;;;;;5093324;28;20390;-70
2023/06/25 06:30:23;;;;;;;14.00;5.30;;;;;;;;;;5093221;28;20346;-71
2023/06/25 06:32:49;;;;;;;10.73;4.53;;;;;;;;;;5093153;28;20028;-70
2023/06/25 06:35:15;;;;;;;18.98;5.68;;;;;;;;;;5093501;28;20031;-70
2023/06/25 06:37:41;;;;;;;10.32;4.80;;;;;;;;;;5092786;28;20036;-70
2023/06/25 06:40:09;;;;;;;12.70;4.97;;;;;;;;;;5094903;28;20031;-71
2023/06/25 06:42:35;;;;;;;17.35;5.60;;;;;;;;;;5092849;28;20066;-70
2023/06/25 06:45:01;;;;;;;10.93;4.50;;;;;;;;;;5091577;28;20028;-71
2023/06/25 06:47:27;;;;;;;15.63;5.53;;;;;;;;;;5092825;28;20040;-71
2023/06/25 06:49:53;;;;;;;10.73;3.97;;;;;;;;;;5092975;28;20464;-72
2023/06/25 06:52:24;;;;;;;15.20;4.85;;;;;;;;;;5091126;28;20478;-72
2023/06/25 06:54:50;;;;;;;12.40;4.53;;;;;;;;;;5054431;28;20040;-73
2023/06/25 06:57:16;;;;;;;13.43;4.60;;;;;;;;;;5072416;28;20027;-71
2023/06/25 06:59:45;;;;;;;15.57;4.53;;;;;;;;;;5054771;28;20071;-72
2023/06/25 07:02:12;;;;;;;12.23;4.53;;;;;;;;;;5088152;28;20084;-77
2023/06/25 07:04:39;;;;;;;9.63;4.25;;;;;;;;;;5055176;28;20040;-76
2023/06/25 07:07:05;;;;;;;10.90;4.30;;;;;;;;;;5088654;28;20020;-75
2023/06/25 07:09:31;;;;;;;16.58;4.78;;;;;;;;;;5072176;28;20083;-74
2023/06/25 07:11:58;;;;;;;9.02;4.10;;;;;;;;;;5072459;28;20474;-75
2023/06/25 07:14:24;;;;;;;12.35;4.60;;;;;;;;;;5072543;28;20029;-74
2023/06/25 07:16:50;;;;;;;10.88;4.32;;;;;;;;;;5071020;28;20157;-74
2023/06/25 07:19:16;;;;;;;12.07;4.55;;;;;;;;;;5072522;28;20508;-75
2023/06/25 07:21:42;;;;;;;11.88;4.70;;;;;;;;;;5050308;28;20052;-74
2023/06/25 07:24:08;;;;;;;13.93;4.32;;;;;;;;;;5053823;28;20069;-74
2023/06/25 07:26:34;;;;;;;12.88;3.97;;;;;;;;;;5055899;28;20501;-74
2023/06/25 07:29:00;;;;;;;9.80;4.13;;;;;;;;;;5055154;28;20116;-73
2023/06/25 07:31:27;;;;;;;12.70;4.28;;;;;;;;;;5055132;28;20379;-74
2023/06/25 07:33:53;;;;;;;11.05;3.92;;;;;;;;;;5055922;28;20115;-73
2023/06/25 07:36:19;;;;;;;8.43;3.30;;;;;;;;;;5055727;28;20033;-74
2023/06/25 07:38:45;;;;;;;9.02;3.33;;;;;;;;;;5055676;28;20033;-74
2023/06/25 07:41:11;;;;;;;8.60;3.60;;;;;;;;;;5053349;28;20043;-74
2023/06/25 07:43:37;;;;;;;9.07;4.00;;;;;;;;;;5055166;28;20483;-73
2023/06/25 07:46:03;;;;;;;12.40;4.10;;;;;;;;;;5055054;28;20505;-73
2023/06/25 07:48:28;;;;;;;12.00;5.13;;;;;;;;;;5054816;28;20033;-73
2023/06/25 07:50:56;;;;;;;12.68;4.43;;;;;;;;;;5053259;28;20021;-73
2023/06/25 07:53:22;;;;;;;12.25;4.15;;;;;;;;;;5054625;28;20102;-74
2023/06/25 07:55:49;;;;;;;9.50;4.20;;;;;;;;;;5053031;28;20066;-75
2023/06/25 07:58:16;;;;;;;9.38;4.00;;;;;;;;;;5054402;28;20475;-72
2023/06/25 08:00:41;;;;;;;11.15;3.53;;;;;;;;;;5052348;28;20513;-71
2023/06/25 08:03:07;;;;;;;10.98;3.78;;;;;;;;;;5053877;28;20040;-73
2023/06/25 08:05:33;;;;;;;10.60;3.42;;;;;;;;;;5053089;28;20053;-73
2023/06/25 08:07:59;;;;;;;10.68;3.50;;;;;;;;;;5069487;28;20051;-72
2023/06/25 08:10:25;;;;;;;11.68;3.30;;;;;;;;;;5054180;28;20025;-72
2023/06/25 08:12:53;;;;;;;10.82;3.95;;;;;;;;;;5053843;28;20044;-73
2023/06/25 08:15:20;;;;;;;9.20;3.72;;;;;;;;;;5054140;28;20082;-74
2023/06/25 08:17:47;;;;;;;10.15;3.40;;;;;;;;;;5053977;28;20055;-72
2023/06/25 08:20:13;;;;;;;9.57;3.50;;;;;;;;;;5053948;28;20029;-73
2023/06/25 08:22:39;;;;;;;11.88;3.67;;;;;;;;;;5053819;28;20139;-72
2023/06/25 08:25:20;;;;;;;6.82;3.30;;;;;;;;;;5053901;28;20096;-73
2023/06/25 08:27:46;;;;;;;19.92;5.15;;;;;;;;;;5054106;28;20047;-72
2023/06/25 08:30:12;;;;;;;9.80;3.80;;;;;;;;;;5053773;28;20099;-73
2023/06/25 08:32:39;;;;;;;12.48;4.30;;;;;;;;;;5054058;28;20037;-72
2023/06/25 08:35:05;;;;;;;9.07;4.50;;;;;;;;;;5053740;28;20219;-73
2023/06/25 08:37:31;;;;;;;12.32;3.80;;;;;;;;;;5057325;28;20115;-73
2023/06/25 08:39:57;;;;;;;7.97;3.20;;;;;;;;;;5061314;28;20123;-72
2023/06/25 08:42:24;;;;;;;8.10;3.05;;;;;;;;;;5073228;28;20090;-72
2023/06/25 08:44:52;;;;;;;13.02;3.55;;;;;;;;;;5073472;28;20032;-72
2023/06/25 08:47:25;;;;;;;9.73;3.50;;;;;;;;;;5073369;28;20093;-74
2023/06/25 08:49:54;;;;;;;10.25;3.53;;;;;;;;;;5073435;28;20035;-73
2023/06/25 08:52:23;;;;;;;11.35;3.88;;;;;;;;;;5072472;28;20016;-73
2023/06/25 08:54:49;;;;;;;7.45;3.20;;;;;;;;;;5060642;28;20036;-72
2023/06/25 08:57:16;;;;;;;10.68;3.47;;;;;;;;;;5053253;28;20021;-72
2023/06/25 08:59:42;;;;;;;8.35;3.35;;;;;;;;;;5053101;28;20497;-73
2023/06/25 09:02:07;;;;;;;13.43;3.67;;;;;;;;;;5053100;28;20017;-73
2023/06/25 09:04:33;;;;;;;11.35;4.00;;;;;;;;;;5052914;28;20095;-74
2023/06/25 09:07:11;;;;;;;13.30;3.65;;;;;;;;;;5052839;28;20397;-76
2023/06/25 09:09:37;;;;;;;13.63;3.97;;;;;;;;;;5068003;28;20066;-71
2023/06/25 09:12:03;;;;;;;12.63;3.60;;;;;;;;;;5073037;28;20028;-73
2023/06/25 09:14:35;;;;;;;8.88;3.53;;;;;;;;;;5072974;28;20036;-73
2023/06/25 09:17:02;;;;;;;;;;;;;;;;;;5071888;28;20478;-72
2023/06/25 09:19:27;;;;;;;13.88;3.42;;;;;;;;;;5072798;28;19922;-72
2023/06/25 09:21:53;;;;;;;9.93;3.20;;;;;;;;;;5071501;28;20115;-72
2023/06/25 09:24:20;;;;;;;8.32;3.05;;;;;;;;;;5071657;28;20555;-72
2023/06/25 09:26:54;;;;;;;15.45;4.10;;;;;;;;;;5071671;28;20036;-72
2023/06/25 09:29:22;;;;;;;10.05;3.50;;;;;;;;;;5066617;28;20032;-73
2023/06/25 09:31:49;;;;;;;12.05;4.00;;;;;;;;;;5052681;28;20170;-73
2023/06/25 09:34:16;;;;;;;12.30;3.78;;;;;;;;;;5052465;28;20041;-73
2023/06/25 09:36:43;;;;;;;11.20;3.38;;;;;;;;;;5052488;28;20029;-72
2023/06/25 09:39:10;;;;;;;11.40;3.40;;;;;;;;;;5052746;28;20037;-73
2023/06/25 09:41:40;;;;;;;11.02;3.88;;;;;;;;;;5051862;28;20028;-73
2023/06/25 09:44:06;;;;;;;10.43;3.42;;;;;;;;;;5050861;28;20045;-73
2023/06/25 09:46:34;;;;;;;9.98;3.80;;;;;;;;;;5050042;28;20037;-71
2023/06/25 09:49:06;;;;;;;13.18;4.05;;;;;;;;;;5052026;28;20036;-73
2023/06/25 09:51:52;;;;;;;9.40;3.83;;;;;;;;;;5051329;28;20121;-73
2023/06/25 09:54:21;;;;;;;10.10;3.65;;;;;;;;;;5050916;28;20415;-73
2023/06/25 09:56:48;;;;;;;11.70;3.55;;;;;;;;;;5052383;28;20044;-73
2023/06/25 09:59:16;;;;;;;13.50;3.90;;;;;;;;;;5052500;28;20045;-73
2023/06/25 10:01:42;;;;;;;12.15;3.83;;;;;;;;;;5051354;28;20048;-73
2023/06/25 10:04:08;;;;;;;8.68;3.45;;;;;;;;;;5053215;28;20525;-73
2023/06/25 10:06:35;;;;;;;12.95;4.30;;;;;;;;;;5052322;28;20037;-72
2023/06/25 10:09:04;;;;;;;9.65;3.90;;;;;;;;;;5051691;28;20447;-73
2023/06/25 10:11:30;;;;;;;11.48;4.68;;;;;;;;;;5051782;28;20582;-73
2023/06/25 10:14:00;;;;;;;11.00;4.10;;;;;;;;;;5051672;28;20111;-72
2023/06/25 10:16:31;;;;;;;12.50;3.95;;;;;;;;;;5051836;28;20498;-72
2023/06/25 10:18:57;;;;;;;8.75;3.78;;;;;;;;;;5050413;28;20041;-72
2023/06/25 10:21:25;;;;;;;15.90;9.32;;;;;;;;;;5051772;28;20048;-72
2023/06/25 10:24:01;;;;;;;12.95;5.13;;;;;;;;;;5051693;28;20045;-73
2023/06/25 10:26:33;;;;;;;12.98;4.07;;;;;;;;;;5051816;28;20033;-72
2023/06/25 10:29:08;;;;;;;9.73;3.97;;;;;;;;;;5050290;28;20041;-73
2023/06/25 10:31:38;;;;;;;14.02;4.50;;;;;;;;;;5051671;28;20035;-73
2023/06/25 10:34:07;;;;;;;10.13;4.00;;;;;;;;;;5051755;28;20279;-73
2023/06/25 10:36:33;;;;;;;14.27;4.50;;;;;;;;;;5051496;28;20098;-72
2023/06/25 10:38:59;;;;;;;14.65;4.72;;;;;;;;;;5050039;28;20048;-72
2023/06/25 10:41:29;;;;;;;11.75;4.70;;;;;;;;;;5051591;28;20023;-72
2023/06/25 10:43:58;;;;;;;9.93;4.00;;;;;;;;;;5064827;28;20120;-72
2023/06/25 10:46:31;;;;;;;15.65;5.03;;;;;;;;;;5069850;28;20097;-74
2023/06/25 10:49:00;;;;;;;13.20;4.88;;;;;;;;;;5071422;28;20090;-72
2023/06/25 10:51:27;;;;;;;12.45;5.78;;;;;;;;;;5073749;28;20082;-72
2023/06/25 10:53:55;;;;;;;12.68;4.78;;;;;;;;;;5076156;28;20043;-72
2023/06/25 10:56:23;;;;;;;12.48;4.78;;;;;;;;;;5073923;28;20024;-75
2023/06/25 10:58:57;;;;;;;14.02;5.80;;;;;;;;;;5059280;28;20046;-73
2023/06/25 11:01:25;;;;;;;11.90;4.88;;;;;;;;;;5057133;28;20048;-74
2023/06/25 11:03:50;;;;;;;13.52;4.60;;;;;;;;;;5058170;28;20084;-74
2023/06/25 11:06:16;;;;;;;10.88;4.70;;;;;;;;;;5057669;28;20102;-71
2023/06/25 11:08:42;;;;;;;12.38;4.82;;;;;;;;;;5055472;28;20116;-72
2023/06/25 11:11:10;;;;;;;11.20;4.18;;;;;;;;;;5054187;28;20044;-72
2023/06/25 11:13:35;;;;;;;10.82;4.65;;;;;;;;;;5055271;28;20061;-72
2023/06/25 11:16:01;;;;;;;10.82;5.22;;;;;;;;;;5055436;28;20065;-72
2023/06/25 11:18:26;;;;;;;11.73;4.10;;;;;;;;;;5055088;28;20047;-73
2023/06/25 11:20:53;;;;;;;9.18;4.50;;;;;;;;;;5055123;28;20029;-73
2023/06/25 11:23:19;;;;;;;13.32;4.00;;;;;;;;;;5055144;28;20058;-72
2023/06/25 11:25:45;;;;;;;12.25;4.75;;;;;;;;;;5055221;28;20033;-71
2023/06/25 11:28:15;;;;;;;10.73;4.10;;;;;;;;;;5054796;28;20094;-73
2023/06/25 11:30:45;;;;;;;11.43;4.60;;;;;;;;;;5053674;28;20071;-72
2023/06/25 11:33:14;;;;;;;11.20;4.32;;;;;;;;;;5059386;28;20172;-73
2023/06/25 11:35:40;;;;;;;13.32;4.00;;;;;;;;;;5073552;28;20051;-73
2023/06/25 11:38:06;;;;;;;11.60;4.00;;;;;;;;;;5073183;28;20543;-73
2023/06/25 11:40:34;;;;;;;13.15;4.22;;;;;;;;;;5073402;28;20050;-73
2023/06/25 11:43:01;;;;;;;12.27;4.57;;;;;;;;;;5073339;28;20094;-73
2023/06/25 11:45:39;;;;;;;12.15;4.00;;;;;;;;;;5074296;28;20020;-73
2023/06/25 11:48:12;;;;;;;10.98;4.05;;;;;;;;;;5073833;28;20032;-73
2023/06/25 11:50:38;;;;;;;15.85;3.95;;;;;;;;;;5074684;28;20123;-73
2023/06/25 11:53:03;;;;;;;13.07;4.28;;;;;;;;;;5075025;28;20131;-72
2023/06/25 11:55:29;;;;;;;12.65;4.50;;;;;;;;;;5075234;28;20405;-72
2023/06/25 11:57:55;;;;;;;9.35;3.90;;;;;;;;;;5074540;28;20474;-71
2023/06/25 12:00:21;;;;;;;13.45;4.25;;;;;;;;;;5074598;28;20029;-71
2023/06/25 12:02:46;;;;;;;8.00;3.67;;;;;;;;;;5074680;28;20490;-72
2023/06/25 12:05:13;;;;;;;14.68;4.47;;;;;;;;;;5074762;28;20040;-73
2023/06/25 12:07:39;;;;;;;12.75;4.38;;;;;;;;;;5074575;28;20040;-73
2023/06/25 12:10:07;;;;;;;9.55;3.70;;;;;;;;;;5073564;28;20037;-72
2023/06/25 12:12:33;;;;;;;9.70;4.07;;;;;;;;;;5073148;28;20060;-73
2023/06/25 12:14:58;;;;;;;11.43;3.88;;;;;;;;;;5074496;28;20029;-73
2023/06/25 12:17:24;;;;;;;9.68;3.90;;;;;;;;;;5074507;28;20532;-72
2023/06/25 12:19:50;;;;;;;13.48;4.65;;;;;;;;;;5073285;28;20046;-72
2023/06/25 12:22:16;;;;;;;11.40;4.63;;;;;;;;;;5073943;28;20032;-73
2023/06/25 12:24:41;;;;;;;10.27;3.97;;;;;;;;;;5074366;28;20036;-73
2023/06/25 12:27:07;;;;;;;12.35;4.85;;;;;;;;;;5073980;28;20032;-72
2023/06/25 12:29:33;;;;;;;14.00;4.55;;;;;;;;;;5074120;28;20029;-73
2023/06/25 12:31:58;;;;;;;11.82;4.30;;;;;;;;;;5055891;28;20584;-72
2023/06/25 12:34:24;;;;;;;11.50;4.00;;;;;;;;;;5074659;28;20032;-73
2023/06/25 12:36:50;;;;;;;10.95;4.03;;;;;;;;;;5073112;28;20375;-72
2023/06/25 12:39:17;;;;;;;11.52;4.10;;;;;;;;;;5072546;28;20072;-73
2023/06/25 12:41:43;;;;;;;10.55;3.95;;;;;;;;;;5073623;28;20477;-72
2023/06/25 12:44:09;;;;;;;12.85;4.47;;;;;;;;;;5074128;28;20115;-73
2023/06/25 12:46:34;;;;;;;9.30;3.90;;;;;;;;;;5073896;28;20021;-73
2023/06/25 12:49:00;;;;;;;12.93;3.95;;;;;;;;;;5073348;28;20049;-73
2023/06/25 12:51:26;;;;;;;8.88;4.18;;;;;;;;;;5073635;28;20083;-73
2023/06/25 12:53:52;;;;;;;17.40;4.63;;;;;;;;;;5073636;28;20513;-73
2023/06/25 12:56:18;;;;;;;10.93;4.20;;;;;;;;;;5073535;28;20059;-72
2023/06/25 12:58:44;;;;;;;10.80;5.18;;;;;;;;;;5073012;28;20482;-72
2023/06/25 13:01:13;;;;;;;10.85;4.28;;;;;;;;;;5073513;28;20028;-73
2023/06/25 13:03:42;;;;;;;10.65;3.80;;;;;;;;;;5073551;28;20062;-73
2023/06/25 13:06:08;;;;;;;9.80;4.03;;;;;;;;;;5073120;28;20036;-73
2023/06/25 13:08:34;;;;;;;11.95;4.10;;;;;;;;;;5073129;28;20043;-73
2023/06/25 13:10:59;;;;;;;11.13;3.92;;;;;;;;;;5072074;28;20467;-73
2023/06/25 13:13:25;;;;;;;12.60;3.70;;;;;;;;;;5073433;28;20040;-73
2023/06/25 13:15:51;;;;;;;16.50;4.20;;;;;;;;;;5073138;28;20020;-72
2023/06/25 13:18:16;;;;;;;11.55;4.50;;;;;;;;;;5071931;28;20029;-72
2023/06/25 13:20:42;;;;;;;10.77;3.53;;;;;;;;;;5072986;28;20390;-73
2023/06/25 13:23:09;;;;;;;9.20;3.95;;;;;;;;;;5075300;28;20479;-72
2023/06/25 13:25:37;;;;;;;11.43;4.05;;;;;;;;;;5075535;28;20110;-72
2023/06/25 13:28:05;;;;;;;17.08;4.35;;;;;;;;;;5074430;28;20036;-73
2023/06/25 13:30:32;;;;;;;10.90;3.83;;;;;;;;;;5074015;28;20024;-73
2023/06/25 13:32:59;;;;;;;10.15;4.07;;;;;;;;;;5073996;28;20041;-71
2023/06/25 13:35:25;;;;;;;13.15;4.18;;;;;;;;;;5072682;28;20497;-72
2023/06/25 13:37:51;;;;;;;12.32;4.00;;;;;;;;;;5072128;28;20037;-73
2023/06/25 13:40:16;;;;;;;10.05;4.53;;;;;;;;;;5072531;28;20029;-73
2023/06/25 13:42:45;;;;;;;9.80;3.60;;;;;;;;;;5074213;28;20506;-73
2023/06/25 13:45:11;;;;;;;10.13;3.83;;;;;;;;;;5073953;28;20508;-73
2023/06/25 13:47:37;;;;;;;9.10;3.90;;;;;;;;;;5073933;28;20040;-73
2023/06/25 13:50:04;;;;;;;7.93;3.80;;;;;;;;;;5074764;28;20040;-72
2023/06/25 13:52:31;;;;;;;12.43;4.70;;;;;;;;;;5074136;28;20434;-73
2023/06/25 13:54:57;;;;;;;10.07;4.18;;;;;;;;;;5074126;28;20025;-72
2023/06/25 13:57:24;;;;;;;12.55;3.92;;;;;;;;;;5074131;28;20402;-72
2023/06/25 13:59:49;;;;;;;10.50;4.15;;;;;;;;;;5073767;28;20153;-72
2023/06/25 14:02:15;;;;;;;13.50;4.60;;;;;;;;;;5073570;28;20120;-73
2023/06/25 14:04:41;;;;;;;10.65;3.97;;;;;;;;;;5055902;28;20492;-72
2023/06/25 14:07:07;;;;;;;9.57;4.43;;;;;;;;;;5073341;28;20398;-73
2023/06/25 14:09:32;;;;;;;11.38;3.90;;;;;;;;;;5073491;28;20028;-73
2023/06/25 14:11:58;;;;;;;11.20;4.00;;;;;;;;;;5072859;28;20032;-73
2023/06/25 14:14:24;;;;;;;8.50;4.40;;;;;;;;;;5073296;28;20035;-72
2023/06/25 14:16:49;;;;;;;10.43;4.15;;;;;;;;;;5073533;28;20055;-72
2023/06/25 14:19:16;;;;;;;17.85;5.22;;;;;;;;;;5073065;28;20099;-72
2023/06/25 14:21:44;;;;;;;16.50;4.50;;;;;;;;;;5072902;28;20041;-71
2023/06/25 14:24:10;;;;;;;14.40;4.85;;;;;;;;;;5074050;28;20098;-72
2023/06/25 14:26:36;;;;;;;11.25;4.45;;;;;;;;;;5073034;28;20056;-72
2023/06/25 14:29:02;;;;;;;12.52;4.22;;;;;;;;;;5073202;28;20024;-73